Time;durP1;ratioP1;P1;durP2;ratioP2;P2;SDS_P1;SDS_P2;PMS_P1;PMS_P2;Temp;Humidity;BMP_temperature;BMP_pressure;BME280_temperature;BME280_humidity;BME280_pressure;Samples;Min_cycle;Max_cycle;Signal;HPM_P1;HPM_P2
2022/05/30 00:01:24;;;;;;;;;;;7.10;99.90;;;;;;5065321;28;19921;-68
2022/05/30 00:03:51;;;;;;;;;;;7.00;99.90;;;;;;5065035;28;19920;-68
2022/05/30 00:06:20;;;;;;;;;;;7.00;99.90;;;;;;5054891;28;20116;-68
2022/05/30 00:08:46;;;;;;;;;;;6.90;99.90;;;;;;5063883;28;19921;-68
2022/05/30 00:11:13;;;;;;;;;;;6.90;99.90;;;;;;5047469;28;19928;-68
2022/05/30 00:13:40;;;;;;;;;;;6.90;99.90;;;;;;5045466;28;19928;-68
2022/05/30 00:16:08;;;;;;;;;;;6.90;99.90;;;;;;5060773;28;19928;-68
2022/05/30 00:18:35;;;;;;;;;;;6.90;99.90;;;;;;5064970;28;19943;-68
2022/05/30 00:21:02;;;;;;;;;;;6.90;99.90;;;;;;5065150;28;19925;-68
2022/05/30 00:23:30;;;;;;;;;;;6.90;99.90;;;;;;5065070;28;19927;-67
2022/05/30 00:25:57;;;;;;;;;;;6.90;99.90;;;;;;5063944;28;19920;-68
2022/05/30 00:28:23;;;;;;;;;;;6.80;99.90;;;;;;5064775;28;19921;-67
2022/05/30 00:30:50;;;;;;;;;;;6.80;99.90;;;;;;5064696;28;20211;-68
2022/05/30 00:33:18;;;;;;;;;;;6.70;99.90;;;;;;5064791;28;19921;-68
2022/05/30 00:35:44;;;;;;;;;;;6.70;99.90;;;;;;5064430;28;19928;-68
2022/05/30 00:38:11;;;;;;;;;;;6.70;99.90;;;;;;5064904;28;19971;-68
2022/05/30 00:40:40;;;;;;;;;;;6.70;99.90;;;;;;5064754;28;19927;-68
2022/05/30 00:43:20;;;;;;;;;;;6.70;99.90;;;;;;5064259;28;19921;-68
2022/05/30 00:45:47;;;;;;;;;;;6.70;99.90;;;;;;5063655;28;19927;-67
2022/05/30 00:48:14;;;;;;;;;;;6.70;99.90;;;;;;5064303;28;19921;-67
2022/05/30 00:50:41;;;;;;;;;;;6.70;99.90;;;;;;5064483;28;19920;-67
2022/05/30 00:53:08;;;;;;;;;;;6.60;99.90;;;;;;5064231;28;20231;-67
2022/05/30 00:55:35;;;;;;;;;;;6.60;99.90;;;;;;5063397;28;20094;-67
2022/05/30 00:58:03;;;;;;;;;;;6.60;99.90;;;;;;5062008;28;19942;-67
2022/05/30 01:00:30;;;;;;;;;;;6.60;99.90;;;;;;5064201;28;19921;-67
2022/05/30 01:08:23;;;;;;;;;;;6.50;99.90;;;;;;5063798;28;20151;-67
2022/05/30 01:10:49;;;;;;;;;;;6.40;99.90;;;;;;5064289;28;19928;-66
2022/05/30 01:13:17;;;;;;;;;;;6.40;99.90;;;;;;5060443;28;19935;-67
2022/05/30 01:15:44;;;;;;;;;;;6.30;99.90;;;;;;5063138;28;19928;-67
2022/05/30 01:18:13;;;;;;;;;;;6.30;99.90;;;;;;5064038;28;19929;-67
2022/05/30 01:20:44;;;;;;;;;;;6.30;99.90;;;;;;5043779;28;19921;-67
2022/05/30 01:23:22;;;;;;;;;;;6.20;99.90;;;;;;5041775;28;20125;-67
2022/05/30 01:25:54;;;;;;;;;;;6.20;99.90;;;;;;5043234;28;20147;-67
2022/05/30 01:28:44;;;;;;;;;;;6.20;99.90;;;;;;5044019;28;20272;-67
2022/05/30 01:31:11;;;;;;;;;;;6.10;99.90;;;;;;5043640;28;19929;-69
2022/05/30 01:33:38;;;;;;;;;;;6.10;99.90;;;;;;5043893;28;20121;-68
2022/05/30 01:36:05;;;;;;;;;;;6.10;99.90;;;;;;5054113;28;19928;-69
2022/05/30 01:38:31;;;;;;;;;;;6.10;99.90;;;;;;5063517;28;19921;-68
2022/05/30 01:40:59;;;;;;;;;;;6.10;99.90;;;;;;5063345;28;20302;-67
2022/05/30 01:43:25;;;;;;;;;;;6.30;99.90;;;;;;5063440;28;20227;-67
2022/05/30 01:45:53;;;;;;;;;;;6.00;99.90;;;;;;5062450;28;19928;-67
2022/05/30 01:48:22;;;;;;;;;;;6.00;99.90;;;;;;5060531;28;19921;-67
2022/05/30 01:50:48;;;;;;;;;;;6.00;99.90;;;;;;5063461;28;19928;-69
2022/05/30 01:53:15;;;;;;;;;;;5.90;99.90;;;;;;5063180;28;19921;-69
2022/05/30 01:55:42;;;;;;;;;;;5.90;99.90;;;;;;5062879;28;19921;-69
2022/05/30 01:58:14;;;;;;;;;;;5.90;99.90;;;;;;5058023;28;19927;-69
2022/05/30 02:00:41;;;;;;;;;;;5.80;99.90;;;;;;5063406;28;19920;-69
2022/05/30 02:03:08;;;;;;;;;;;5.80;99.90;;;;;;5063117;28;19921;-69
2022/05/30 02:05:35;;;;;;;;;;;5.80;99.90;;;;;;5062104;28;20234;-68
2022/05/30 02:08:02;;;;;;;;;;;5.70;99.90;;;;;;5061346;28;19921;-69
2022/05/30 02:10:29;;;;;;;;;;;5.70;99.90;;;;;;5054388;28;19921;-69
2022/05/30 02:12:56;;;;;;;;;;;5.70;99.90;;;;;;5054341;28;19979;-69
2022/05/30 02:15:22;;;;;;;;;;;6.10;99.90;;;;;;5042750;28;19945;-69
2022/05/30 02:17:48;;;;;;;;;;;5.60;99.90;;;;;;5043270;28;19928;-69
2022/05/30 02:20:17;;;;;;;;;;;5.60;99.90;;;;;;5043187;28;19944;-69
2022/05/30 02:22:44;;;;;;;;;;;5.60;99.90;;;;;;5060015;28;20266;-67
2022/05/30 02:25:12;;;;;;;;;;;5.50;99.90;;;;;;5062621;28;20112;-69
2022/05/30 02:27:38;;;;;;;;;;;5.50;99.90;;;;;;5062832;28;19948;-68
2022/05/30 02:30:06;;;;;;;;;;;5.40;99.90;;;;;;5063231;28;20136;-69
2022/05/30 02:32:33;;;;;;;;;;;5.40;99.90;;;;;;5065145;28;19928;-69
2022/05/30 02:37:44;;;;;;;;;;;5.40;99.90;;;;;;5066766;28;19923;-70
2022/05/30 02:40:11;;;;;;;;;;;5.40;99.90;;;;;;5066830;28;19921;-69
2022/05/30 02:42:40;;;;;;;;;;;5.30;99.90;;;;;;5066699;28;19927;-69
2022/05/30 02:45:07;;;;;;;;;;;5.30;99.90;;;;;;5065066;28;19999;-69
2022/05/30 02:47:34;;;;;;;;;;;5.40;99.90;;;;;;5066289;28;19944;-69
2022/05/30 02:50:00;;;;;;;;;;;5.30;99.90;;;;;;5046863;28;19920;-67
2022/05/30 02:52:27;;;;;;;;;;;5.40;99.90;;;;;;5046787;28;19928;-69
2022/05/30 02:54:55;;;;;;;;;;;5.40;99.90;;;;;;5046551;28;19928;-68
2022/05/30 02:57:21;;;;;;;;;;;5.30;99.90;;;;;;5046971;28;19925;-69
2022/05/30 02:59:49;;;;;;;;;;;5.20;99.90;;;;;;5044234;28;19921;-69
2022/05/30 03:02:15;;;;;;;;;;;5.10;99.90;;;;;;5046787;28;20117;-69
2022/05/30 03:04:42;;;;;;;;;;;5.00;99.90;;;;;;5046316;28;19928;-69
2022/05/30 03:07:08;;;;;;;;;;;5.00;99.90;;;;;;5045954;28;19921;-69
2022/05/30 03:09:35;;;;;;;;;;;4.90;99.90;;;;;;5046677;28;19921;-68
2022/05/30 03:12:03;;;;;;;;;;;4.90;99.90;;;;;;5046268;28;19929;-69
2022/05/30 03:14:30;;;;;;;;;;;4.80;99.90;;;;;;5045960;28;19921;-69
2022/05/30 03:16:56;;;;;;;;;;;4.90;99.90;;;;;;5045277;28;19921;-69
2022/05/30 03:19:23;;;;;;;;;;;4.80;99.90;;;;;;5046367;28;19928;-67
2022/05/30 03:21:49;;;;;;;;;;;4.80;99.90;;;;;;5046373;28;19928;-68
2022/05/30 03:24:16;;;;;;;;;;;4.80;99.90;;;;;;5046226;28;19921;-69
2022/05/30 03:26:43;;;;;;;;;;;4.80;99.90;;;;;;5045336;28;20120;-69
2022/05/30 03:29:10;;;;;;;;;;;4.80;99.90;;;;;;5045972;28;19921;-69
2022/05/30 03:31:37;;;;;;;;;;;4.70;99.90;;;;;;5046250;28;19921;-69
2022/05/30 03:34:04;;;;;;;;;;;4.80;99.90;;;;;;5051677;28;19925;-68
2022/05/30 03:36:32;;;;;;;;;;;4.70;99.90;;;;;;5045432;28;20426;-69
2022/05/30 03:38:59;;;;;;;;;;;4.80;99.90;;;;;;5045833;28;19927;-69
2022/05/30 03:41:25;;;;;;;;;;;4.80;99.90;;;;;;5058986;28;19921;-68
2022/05/30 03:43:52;;;;;;;;;;;4.70;99.90;;;;;;5064298;28;19920;-69
2022/05/30 03:46:20;;;;;;;;;;;4.70;99.90;;;;;;5064641;28;19921;-69
2022/05/30 03:48:46;;;;;;;;;;;4.80;99.90;;;;;;5064614;28;19921;-69
2022/05/30 03:51:14;;;;;;;;;;;4.70;99.90;;;;;;5064312;28;19955;-69
2022/05/30 03:53:41;;;;;;;;;;;4.80;99.90;;;;;;5064377;28;19927;-69
2022/05/30 03:56:08;;;;;;;;;;;4.80;99.90;;;;;;5063516;28;19921;-69
2022/05/30 03:58:34;;;;;;;;;;;4.80;99.90;;;;;;5061809;28;19927;-69
2022/05/30 04:01:01;;;;;;;;;;;4.70;99.90;;;;;;5064227;28;20230;-69
2022/05/30 04:03:29;;;;;;;;;;;4.50;99.90;;;;;;5064438;28;20151;-69
2022/05/30 04:05:55;;;;;;;;;;;4.60;99.90;;;;;;5063626;28;19927;-69
2022/05/30 04:08:22;;;;;;;;;;;4.50;99.90;;;;;;5062937;28;19921;-69
2022/05/30 04:10:48;;;;;;;;;;;4.50;99.90;;;;;;5062738;28;19921;-68
2022/05/30 04:13:15;;;;;;;;;;;4.50;99.90;;;;;;5044223;28;19921;-69
2022/05/30 04:15:42;;;;;;;;;;;4.60;99.90;;;;;;5048040;28;19927;-69
2022/05/30 04:18:09;;;;;;;;;;;4.60;99.90;;;;;;5054625;28;19951;-69
2022/05/30 04:20:37;;;;;;;;;;;4.80;99.90;;;;;;5053041;28;19921;-69
2022/05/30 04:23:03;;;;;;;;;;;4.80;99.90;;;;;;5057380;28;19967;-69
2022/05/30 04:25:30;;;;;;;;;;;4.90;99.90;;;;;;5062613;28;19935;-69
2022/05/30 04:27:56;;;;;;;;;;;5.10;99.90;;;;;;5055794;28;19921;-69
2022/05/30 04:30:23;;;;;;;;;;;5.20;99.90;;;;;;5049500;28;20234;-68
2022/05/30 04:32:50;;;;;;;;;;;5.30;99.90;;;;;;5063587;28;19988;-69
2022/05/30 04:35:17;;;;;;;;;;;5.50;99.90;;;;;;5000761;22;2233775;-91
2022/05/30 04:37:50;;;;;;;;;;;5.50;99.90;;;;;;5040716;28;19929;-90
2022/05/30 04:40:19;;;;;;;;;;;5.60;99.90;;;;;;5044508;28;19983;-90
2022/05/30 04:42:46;;;;;;;;;;;5.60;99.90;;;;;;5044812;28;19925;-89
2022/05/30 04:45:13;;;;;;;;;;;5.60;99.90;;;;;;5043330;28;19929;-90
2022/05/30 04:47:40;;;;;;;;;;;5.70;99.90;;;;;;5043633;28;20127;-90
2022/05/30 04:50:08;;;;;;;;;;;5.80;99.90;;;;;;5040042;28;19921;-90
2022/05/30 04:52:34;;;;;;;;;;;5.90;99.90;;;;;;5043137;28;20119;-90
2022/05/30 04:55:01;;;;;;;;;;;6.10;99.90;;;;;;5043151;28;19921;-90
2022/05/30 04:57:29;;;;;;;;;;;6.20;99.90;;;;;;5043252;28;19921;-90
2022/05/30 04:59:56;;;;;;;;;;;6.30;99.90;;;;;;5042205;28;20111;-90
2022/05/30 05:02:23;;;;;;;;;;;6.30;99.90;;;;;;5024393;28;19921;-90
2022/05/30 05:04:49;;;;;;;;;;;6.40;99.90;;;;;;5029036;28;20127;-90
2022/05/30 05:07:16;;;;;;;;;;;6.40;99.90;;;;;;5035733;28;19988;-89
2022/05/30 05:09:47;;;;;;;;;;;6.50;99.90;;;;;;5036496;28;19996;-90
2022/05/30 05:12:14;;;;;;;;;;;6.50;99.90;;;;;;5024400;28;19960;-89
2022/05/30 05:14:42;;;;;;;;;;;6.60;99.90;;;;;;5036235;28;19921;-90
2022/05/30 05:17:09;;;;;;;;;;;6.70;99.90;;;;;;5033306;28;20239;-90
2022/05/30 05:19:37;;;;;;;;;;;6.80;99.90;;;;;;5043488;28;19988;-90
2022/05/30 05:22:04;;;;;;;;;;;6.90;99.90;;;;;;5038483;28;20321;-90
2022/05/30 05:24:32;;;;;;;;;;;7.00;99.90;;;;;;5039404;28;19921;-90
2022/05/30 05:26:59;;;;;;;;;;;7.10;99.90;;;;;;5038642;28;20271;-90
2022/05/30 05:29:25;;;;;;;;;;;7.30;99.90;;;;;;5039554;28;19927;-90
2022/05/30 05:31:53;;;;;;;;;;;7.40;99.90;;;;;;5043630;28;20165;-90
2022/05/30 05:34:20;;;;;;;;;;;7.60;99.90;;;;;;5043231;28;19922;-90
2022/05/30 05:36:48;;;;;;;;;;;7.60;99.90;;;;;;5042887;28;19921;-90
2022/05/30 05:39:15;;;;;;;;;;;7.80;99.90;;;;;;5043155;28;19988;-90
2022/05/30 05:41:43;;;;;;;;;;;7.90;99.90;;;;;;5042542;28;19984;-91
2022/05/30 05:44:09;;;;;;;;;;;8.00;99.90;;;;;;5042564;28;19989;-89
2022/05/30 05:46:36;;;;;;;;;;;8.10;99.90;;;;;;5042942;28;19967;-90
2022/05/30 05:49:06;;;;;;;;;;;8.20;99.90;;;;;;5043343;28;19927;-90
2022/05/30 05:51:32;;;;;;;;;;;8.30;99.90;;;;;;5035134;28;19928;-90
2022/05/30 05:53:59;;;;;;;;;;;8.40;99.90;;;;;;5043103;28;20100;-90
2022/05/30 05:56:27;;;;;;;;;;;8.50;99.90;;;;;;5042989;28;20115;-90
2022/05/30 05:58:53;;;;;;;;;;;8.50;99.90;;;;;;5042893;28;19992;-89
2022/05/30 06:01:21;;;;;;;;;;;8.60;99.90;;;;;;5042931;28;19935;-89
2022/05/30 06:03:48;;;;;;;;;;;8.70;99.90;;;;;;5042907;28;19943;-89
2022/05/30 06:06:16;;;;;;;;;;;8.70;99.90;;;;;;5043352;28;19927;-90
2022/05/30 06:08:43;;;;;;;;;;;8.90;99.90;;;;;;5047361;28;19921;-90
2022/05/30 06:11:09;;;;;;;;;;;8.90;99.90;;;;;;5047092;28;19984;-90
2022/05/30 06:13:36;;;;;;;;;;;8.90;99.90;;;;;;5047060;28;19921;-90
2022/05/30 06:16:10;;;;;;;;;;;9.10;99.90;;;;;;5046924;28;20262;-90
2022/05/30 06:18:36;;;;;;;;;;;9.20;99.90;;;;;;5046777;28;19921;-90
2022/05/30 06:21:03;;;;;;;;;;;9.20;99.90;;;;;;5047111;28;19921;-90
2022/05/30 06:23:31;;;;;;;;;;;9.30;99.90;;;;;;5046934;28;19928;-89
2022/05/30 06:26:01;;;;;;;;;;;9.40;99.90;;;;;;5046785;28;20119;-89
2022/05/30 06:28:28;;;;;;;;;;;9.40;99.90;;;;;;5046438;28;20155;-90
2022/05/30 06:30:55;;;;;;;;;;;9.50;99.90;;;;;;5046055;28;19921;-90
2022/05/30 06:33:22;;;;;;;;;;;9.50;99.90;;;;;;5046698;28;19921;-90
2022/05/30 06:35:49;;;;;;;;;;;9.60;99.90;;;;;;5046537;28;19928;-90
2022/05/30 06:38:16;;;;;;;;;;;9.70;99.90;;;;;;5046551;28;19928;-91
2022/05/30 06:40:44;;;;;;;;;;;9.80;99.90;;;;;;5046865;28;19963;-90
2022/05/30 06:43:11;;;;;;;;;;;9.90;99.90;;;;;;5046376;28;19985;-90
2022/05/30 06:45:38;;;;;;;;;;;9.90;99.90;;;;;;5046116;28;20115;-91
2022/05/30 06:48:05;;;;;;;;;;;9.90;99.90;;;;;;5046324;28;19988;-90
2022/05/30 06:50:32;;;;;;;;;;;10.00;99.90;;;;;;5044351;28;19952;-90
2022/05/30 06:52:58;;;;;;;;;;;10.00;99.90;;;;;;5046320;28;19993;-90
2022/05/30 06:55:25;;;;;;;;;;;10.10;99.90;;;;;;5045792;28;19967;-89
2022/05/30 07:00:37;;;;;;;;;;;10.30;99.90;;;;;;5046286;28;19928;-89
2022/05/30 07:03:04;;;;;;;;;;;10.40;99.90;;;;;;5046735;28;19926;-91
2022/05/30 07:05:30;;;;;;;;;;;10.50;99.90;;;;;;5046082;28;19967;-90
2022/05/30 07:07:58;;;;;;;;;;;10.60;99.90;;;;;;5046789;28;19929;-90
2022/05/30 07:10:25;;;;;;;;;;;10.70;99.90;;;;;;5048535;28;20208;-90
2022/05/30 07:12:53;;;;;;;;;;;10.80;99.90;;;;;;5051205;28;19996;-90
2022/05/30 07:15:20;;;;;;;;;;;10.80;99.90;;;;;;5054445;28;19921;-89
2022/05/30 07:17:46;;;;;;;;;;;10.90;99.90;;;;;;5048608;28;20042;-89
2022/05/30 07:20:13;;;;;;;;;;;10.90;99.90;;;;;;5045674;28;19988;-89
2022/05/30 07:22:40;;;;;;;;;;;11.00;99.90;;;;;;5045935;28;19988;-89
2022/05/30 07:25:07;;;;;;;;;;;11.10;99.90;;;;;;5045585;28;19921;-89
2022/05/30 07:27:34;;;;;;;;;;;11.20;99.90;;;;;;5045788;28;19980;-89
2022/05/30 07:30:02;;;;;;;;;;;11.30;99.90;;;;;;5045603;28;19988;-89
2022/05/30 07:32:32;;;;;;;;;;;11.30;99.90;;;;;;5045538;28;20265;-89
2022/05/30 07:34:58;;;;;;;;;;;11.30;99.90;;;;;;5045423;28;19921;-89
2022/05/30 07:37:25;;;;;;;;;;;11.40;99.90;;;;;;5045431;28;19928;-89
2022/05/30 07:39:51;;;;;;;;;;;11.50;99.90;;;;;;5045491;28;19921;-89
2022/05/30 07:42:18;;;;;;;;;;;11.50;99.90;;;;;;5045249;28;19984;-89
2022/05/30 07:44:45;;;;;;;;;;;11.50;99.90;;;;;;5049044;28;19921;-88
2022/05/30 07:47:16;;;;;;;;;;;11.60;99.90;;;;;;5037024;28;20173;-89
2022/05/30 07:49:43;;;;;;;;;;;11.80;99.90;;;;;;5044906;28;20148;-89
2022/05/30 07:52:09;;;;;;;;;;;11.90;99.90;;;;;;5045179;28;20007;-89
2022/05/30 07:54:36;;;;;;;;;;;12.00;99.90;;;;;;5043782;28;19988;-90
2022/05/30 07:57:03;;;;;;;;;;;12.20;99.90;;;;;;5033180;28;19921;-89
2022/05/30 07:59:30;;;;;;;;;;;12.40;99.90;;;;;;5045283;28;19921;-89
2022/05/30 08:01:57;;;;;;;;;;;12.50;99.90;;;;;;5044845;28;19921;-88
2022/05/30 08:04:25;;;;;;;;;;;12.60;99.90;;;;;;5042636;28;19932;-90
2022/05/30 08:06:52;;;;;;;;;;;12.70;99.90;;;;;;5044726;28;19949;-90
2022/05/30 08:09:19;;;;;;;;;;;12.80;99.90;;;;;;5044557;28;19966;-90
2022/05/30 08:11:45;;;;;;;;;;;12.90;99.90;;;;;;5044811;28;19948;-89
2022/05/30 08:14:43;;;;;;;;;;;13.00;99.90;;;;;;5043420;28;19988;-90
2022/05/30 08:17:10;;;;;;;;;;;13.00;99.90;;;;;;5044477;28;19984;-90
2022/05/30 08:19:40;;;;;;;;;;;13.10;99.90;;;;;;5044054;28;19988;-89
2022/05/30 08:22:08;;;;;;;;;;;13.20;99.90;;;;;;5043717;28;20213;-87
2022/05/30 08:24:35;;;;;;;;;;;13.20;99.90;;;;;;5044223;28;19921;-89
2022/05/30 08:27:03;;;;;;;;;;;13.30;99.90;;;;;;5043890;28;19939;-89
2022/05/30 08:29:30;;;;;;;;;;;13.40;99.90;;;;;;5043888;28;19921;-88
2022/05/30 08:31:57;;;;;;;;;;;13.30;99.90;;;;;;5044231;28;19920;-89
2022/05/30 08:34:23;;;;;;;;;;;13.30;99.90;;;;;;5030429;28;19921;-89
2022/05/30 08:36:52;;;;;;;;;;;13.30;99.90;;;;;;5041736;28;19921;-90
2022/05/30 08:42:03;;;;;;;;;;;13.30;99.90;;;;;;5027224;28;19957;-89
2022/05/30 08:44:30;;;;;;;;;;;13.50;99.90;;;;;;5044989;28;19989;-90
2022/05/30 08:47:01;;;;;;;;;;;13.50;99.90;;;;;;5044474;28;19921;-89
2022/05/30 08:49:30;;;;;;;;;;;13.60;99.90;;;;;;5043195;28;20260;-90
2022/05/30 08:52:04;;;;;;;;;;;13.70;99.90;;;;;;5024721;28;20098;-89
2022/05/30 08:54:38;;;;;;;;;;;13.80;99.90;;;;;;5034396;28;19984;-89
2022/05/30 08:57:08;;;;;;;;;;;13.80;99.90;;;;;;5043476;28;19925;-88
2022/05/30 08:59:42;;;;;;;;;;;14.00;99.90;;;;;;5043806;28;19943;-88
2022/05/30 09:02:12;;;;;;;;;;;14.10;99.90;;;;;;5043563;28;19988;-89
2022/05/30 09:04:41;;;;;;;;;;;14.30;99.90;;;;;;5024620;28;19921;-90
2022/05/30 09:07:10;;;;;;;;;;;14.40;99.90;;;;;;5030405;28;20155;-89
2022/05/30 09:09:41;;;;;;;;;;;14.40;99.90;;;;;;5044243;28;19927;-90
2022/05/30 09:12:14;;;;;;;;;;;14.60;99.90;;;;;;5044455;28;20238;-89
2022/05/30 09:14:44;;;;;;;;;;;14.70;99.90;;;;;;5043448;28;19928;-88
2022/05/30 09:17:13;;;;;;;;;;;14.70;99.90;;;;;;5043214;28;19921;-89
2022/05/30 09:19:41;;;;;;;;;;;14.70;99.90;;;;;;5043324;28;19984;-89
2022/05/30 09:22:10;;;;;;;;;;;14.70;99.90;;;;;;5043616;28;19983;-89
2022/05/30 09:25:55;;;;;;;;;;;14.60;99.90;;;;;;5043130;28;19928;-90
2022/05/30 09:27:30;;;;;;;;;;;14.60;99.90;;;;;;5042465;28;20433;-89
2022/05/30 09:30:00;;;;;;;;;;;14.60;99.90;;;;;;5043327;28;20216;-90
2022/05/30 09:32:32;;;;;;;;;;;14.60;99.90;;;;;;5043113;28;19928;-90
2022/05/30 09:35:17;;;;;;;;;;;14.60;99.90;;;;;;5042938;28;19929;-89
2022/05/30 09:37:46;;;;;;;;;;;14.60;99.90;;;;;;5036249;28;20120;-89
2022/05/30 09:40:13;;;;;;;;;;;14.70;99.90;;;;;;5043062;28;19988;-90
2022/05/30 09:42:48;;;;;;;;;;;14.80;99.90;;;;;;5042821;28;20091;-89
2022/05/30 09:45:16;;;;;;;;;;;14.80;99.90;;;;;;5042839;28;19921;-89
2022/05/30 09:47:57;;;;;;;;;;;15.00;99.90;;;;;;5043238;28;20080;-89
2022/05/30 09:50:24;;;;;;;;;;;15.20;99.90;;;;;;5040425;28;20182;-89
2022/05/30 09:52:52;;;;;;;;;;;15.40;99.90;;;;;;5042744;28;19921;-90
2022/05/30 09:55:32;;;;;;;;;;;15.50;99.90;;;;;;5042299;28;19991;-89
2022/05/30 09:58:24;;;;;;;;;;;15.60;99.90;;;;;;5042933;28;19992;-89
2022/05/30 10:00:55;;;;;;;;;;;15.80;99.90;;;;;;5030615;28;19936;-89
2022/05/30 10:03:29;;;;;;;;;;;15.90;99.90;;;;;;5034578;28;19925;-88
2022/05/30 10:06:11;;;;;;;;;;;15.80;99.90;;;;;;5042929;28;19928;-89
2022/05/30 10:08:40;;;;;;;;;;;15.70;99.90;;;;;;5042644;28;19921;-89
2022/05/30 10:11:06;;;;;;;;;;;15.50;99.90;;;;;;5042575;28;20208;-88
2022/05/30 10:13:37;;;;;;;;;;;15.40;99.90;;;;;;5043081;28;19928;-89
2022/05/30 10:16:05;;;;;;;;;;;15.30;99.90;;;;;;5042402;28;19921;-90
2022/05/30 10:18:34;;;;;;;;;;;15.20;99.90;;;;;;5042795;28;19996;-89
2022/05/30 10:21:07;;;;;;;;;;;15.10;99.90;;;;;;5042531;28;20260;-89
2022/05/30 10:29:24;;;;;;;;;;;15.40;99.90;;;;;;5033343;28;19932;-88
2022/05/30 10:31:53;;;;;;;;;;;15.60;99.90;;;;;;5042722;28;19960;-89
2022/05/30 10:34:38;;;;;;;;;;;15.60;99.90;;;;;;5041388;28;19980;-89
2022/05/30 10:37:15;;;;;;;;;;;15.60;99.90;;;;;;5034689;28;20258;-89
2022/05/30 10:40:00;;;;;;;;;;;15.50;99.90;;;;;;5042365;28;19980;-89
2022/05/30 10:42:32;;;;;;;;;;;15.50;99.90;;;;;;5040785;28;20001;-90
2022/05/30 10:45:02;;;;;;;;;;;15.50;99.90;;;;;;5042503;28;19921;-89
2022/05/30 10:47:35;;;;;;;;;;;15.50;99.90;;;;;;5042564;28;20180;-89
2022/05/30 10:50:03;;;;;;;;;;;15.80;99.90;;;;;;5042368;28;19928;-89
2022/05/30 10:52:33;;;;;;;;;;;16.10;99.90;;;;;;5043222;28;19988;-89
2022/05/30 10:55:02;;;;;;;;;;;16.50;99.90;;;;;;5045870;28;20113;-90
2022/05/30 10:57:34;;;;;;;;;;;16.90;99.90;;;;;;5045669;28;19921;-90
2022/05/30 11:00:05;;;;;;;;;;;17.10;99.90;;;;;;5042280;28;19993;-89
2022/05/30 11:02:37;;;;;;;;;;;17.20;99.90;;;;;;5038528;28;20291;-90
2022/05/30 11:05:09;;;;;;;;;;;17.00;99.90;;;;;;5045217;28;19928;-89
2022/05/30 11:07:46;;;;;;;;;;;16.80;99.90;;;;;;5046134;28;19993;-88
2022/05/30 11:10:21;;;;;;;;;;;16.40;99.90;;;;;;5039368;28;19945;-89
2022/05/30 11:12:53;;;;;;;;;;;16.20;99.90;;;;;;5045495;28;20040;-88
2022/05/30 11:15:23;;;;;;;;;;;16.20;99.90;;;;;;5045442;28;19983;-89
2022/05/30 11:17:53;;;;;;;;;;;16.40;99.90;;;;;;5032105;28;20105;-89
2022/05/30 11:20:22;;;;;;;;;;;16.70;99.90;;;;;;5039705;28;19921;-89
2022/05/30 11:22:50;;;;;;;;;;;16.90;99.90;;;;;;5045861;28;19988;-89
2022/05/30 11:25:18;;;;;;;;;;;16.90;99.90;;;;;;5045292;28;19956;-89
2022/05/30 11:27:51;;;;;;;;;;;16.90;99.90;;;;;;5045127;28;19921;-88
2022/05/30 11:30:42;;;;;;;;;;;16.80;99.90;;;;;;5045109;28;19921;-90
2022/05/30 11:33:41;;;;;;;;;;;16.80;99.90;;;;;;5025403;28;19944;-88
2022/05/30 11:36:17;;;;;;;;;;;16.70;99.90;;;;;;4964449;28;20172;-90
2022/05/30 11:38:53;;;;;;;;;;;16.60;99.90;;;;;;4964869;29;19990;-89
2022/05/30 11:41:35;;;;;;;;;;;16.40;99.90;;;;;;5016445;28;19984;-90
2022/05/30 11:44:10;;;;;;;;;;;16.30;99.90;;;;;;5044845;28;20209;-90
2022/05/30 11:46:42;;;;;;;;;;;16.50;99.90;;;;;;5044868;28;19921;-90
2022/05/30 11:49:15;;;;;;;;;;;16.80;99.90;;;;;;5045291;28;19988;-89
2022/05/30 11:51:49;;;;;;;;;;;17.00;99.90;;;;;;5044981;28;19986;-90
2022/05/30 11:54:29;;;;;;;;;;;17.10;99.90;;;;;;5045453;28;19921;-90
2022/05/30 11:57:01;;;;;;;;;;;17.50;99.90;;;;;;5044523;28;19983;-90
2022/05/30 11:59:35;;;;;;;;;;;17.90;99.90;;;;;;5041908;28;19992;-89
2022/05/30 12:02:04;;;;;;;;;;;18.40;99.90;;;;;;5043456;28;19921;-90
2022/05/30 12:04:46;;;;;;;;;;;18.70;99.90;;;;;;5044061;28;19943;-89
2022/05/30 12:07:33;;;;;;;;;;;18.70;99.30;;;;;;5043644;28;19921;-89
2022/05/30 12:10:14;;;;;;;;;;;19.00;99.90;;;;;;5023824;28;20271;-88
2022/05/30 12:12:45;;;;;;;;;;;19.20;98.30;;;;;;5042432;28;19928;-89
2022/05/30 12:15:39;;;;;;;;;;;19.20;97.80;;;;;;5044426;28;19921;-88
2022/05/30 12:24:02;;;;;;;;;;;18.20;97.40;;;;;;5043115;28;20155;-88
2022/05/30 12:26:48;;;;;;;;;;;18.10;97.80;;;;;;5044187;28;19927;-88
2022/05/30 12:29:30;;;;;;;;;;;17.90;98.20;;;;;;5041685;28;19943;-88
2022/05/30 12:32:11;;;;;;;;;;;17.70;98.70;;;;;;5041073;28;19921;-87
2022/05/30 12:34:57;;;;;;;;;;;17.60;99.40;;;;;;5043771;28;19933;-88
2022/05/30 12:37:38;;;;;;;;;;;17.60;98.30;;;;;;5043166;28;20005;-88
2022/05/30 12:40:05;;;;;;;;;;;17.60;98.60;;;;;;5044151;28;20183;-87
2022/05/30 12:42:34;;;;;;;;;;;17.60;98.80;;;;;;5041797;28;19927;-87
2022/05/30 12:45:14;;;;;;;;;;;17.60;98.20;;;;;;5043063;28;19921;-87
2022/05/30 12:47:48;;;;;;;;;;;17.70;98.40;;;;;;5043052;28;19921;-88
2022/05/30 12:50:33;;;;;;;;;;;17.70;98.30;;;;;;5038994;28;19921;-87
2022/05/30 12:53:01;;;;;;;;;;;17.60;97.20;;;;;;5043021;28;19980;-89
2022/05/30 12:55:33;;;;;;;;;;;17.50;98.30;;;;;;5042301;28;19927;-88
2022/05/30 12:58:00;;;;;;;;;;;17.50;97.70;;;;;;5042381;28;19925;-87
2022/05/30 13:00:46;;;;;;;;;;;17.50;97.60;;;;;;5043939;28;19933;-88
2022/05/30 13:03:24;;;;;;;;;;;17.40;97.40;;;;;;5041239;28;19927;-88
2022/05/30 13:06:05;;;;;;;;;;;17.60;97.90;;;;;;5040928;28;20182;-88
2022/05/30 13:09:03;;;;;;;;;;;17.90;98.60;;;;;;5040932;28;19988;-88
2022/05/30 13:11:37;;;;;;;;;;;18.10;97.20;;;;;;5043762;28;19967;-88
2022/05/30 13:14:06;;;;;;;;;;;18.10;96.50;;;;;;5043726;28;19984;-89
2022/05/30 13:16:38;;;;;;;;;;;18.10;97.00;;;;;;5041063;28;19925;-90
2022/05/30 13:19:07;;;;;;;;;;;18.20;98.60;;;;;;5043790;28;20299;-89
2022/05/30 13:21:34;;;;;;;;;;;18.20;96.60;;;;;;5043654;28;19940;-89
2022/05/30 13:24:01;;;;;;;;;;;18.10;96.60;;;;;;5043491;28;19921;-89
2022/05/30 13:26:32;;;;;;;;;;;18.00;96.60;;;;;;5042986;28;19921;-89
2022/05/30 13:29:01;;;;;;;;;;;17.80;96.40;;;;;;5043719;28;19949;-88
2022/05/30 13:31:28;;;;;;;;;;;17.80;95.60;;;;;;5043705;28;20309;-88
2022/05/30 13:33:55;;;;;;;;;;;17.70;96.70;;;;;;5043750;28;19928;-88
2022/05/30 13:36:26;;;;;;;;;;;17.70;96.10;;;;;;5042997;28;20220;-86
2022/05/30 13:38:54;;;;;;;;;;;17.70;97.00;;;;;;5038656;28;19921;-86
2022/05/30 13:41:26;;;;;;;;;;;17.60;97.20;;;;;;5042847;28;19985;-86
2022/05/30 13:43:53;;;;;;;;;;;17.70;96.70;;;;;;5042942;28;19948;-86
2022/05/30 13:46:22;;;;;;;;;;;17.70;96.80;;;;;;5042499;28;19935;-86
2022/05/30 13:48:49;;;;;;;;;;;17.70;96.90;;;;;;5042260;28;19961;-87
2022/05/30 13:51:27;;;;;;;;;;;17.80;97.90;;;;;;5040745;28;20242;-95
2022/05/30 13:53:57;;;;;;;;;;;17.80;97.90;;;;;;5041904;28;19988;-93
2022/05/30 13:56:25;;;;;;;;;;;17.90;96.50;;;;;;5044361;28;19927;-93
2022/05/30 13:58:53;;;;;;;;;;;17.90;97.10;;;;;;5045016;28;19921;-94
2022/05/30 14:01:21;;;;;;;;;;;17.70;96.20;;;;;;5045142;28;19944;-93
2022/05/30 14:03:49;;;;;;;;;;;17.70;96.10;;;;;;5044288;28;19984;-92
2022/05/30 14:06:20;;;;;;;;;;;17.90;96.50;;;;;;5036230;28;19945;-93
2022/05/30 14:08:47;;;;;;;;;;;18.00;95.90;;;;;;5046697;28;19921;-94
2022/05/30 14:11:16;;;;;;;;;;;18.10;95.50;;;;;;5047695;28;20008;-94
2022/05/30 14:13:52;;;;;;;;;;;18.10;95.20;;;;;;5045368;28;19943;-93
2022/05/30 14:16:34;;;;;;;;;;;18.10;95.10;;;;;;5045902;28;19988;-94
2022/05/30 14:19:03;;;;;;;;;;;18.20;94.80;;;;;;5028610;28;19921;-94
2022/05/30 14:21:30;;;;;;;;;;;18.20;95.20;;;;;;5031853;28;20097;-94
2022/05/30 14:24:03;;;;;;;;;;;18.30;95.70;;;;;;5049556;28;19925;-93
2022/05/30 14:26:35;;;;;;;;;;;18.30;95.00;;;;;;5049891;28;19928;-92
2022/05/30 14:29:06;;;;;;;;;;;18.60;97.20;;;;;;5048082;28;19980;-93
2022/05/30 14:31:34;;;;;;;;;;;19.00;95.30;;;;;;5050756;28;19947;-93
2022/05/30 14:34:01;;;;;;;;;;;19.60;94.30;;;;;;5046227;28;20263;-93
2022/05/30 14:36:39;;;;;;;;;;;20.00;93.50;;;;;;5048064;28;19980;-92
2022/05/30 14:39:20;;;;;;;;;;;20.10;93.70;;;;;;5047638;28;19921;-93
2022/05/30 14:41:55;;;;;;;;;;;20.00;93.80;;;;;;5048149;28;19944;-91
2022/05/30 14:44:22;;;;;;;;;;;19.80;93.40;;;;;;5047117;28;20266;-92
2022/05/30 14:46:50;;;;;;;;;;;19.50;94.20;;;;;;5047002;28;19984;-93
2022/05/30 14:49:18;;;;;;;;;;;19.30;94.00;;;;;;5047557;28;20123;-92
2022/05/30 14:51:50;;;;;;;;;;;19.00;94.10;;;;;;5047517;28;19928;-92
2022/05/30 14:54:20;;;;;;;;;;;18.80;93.90;;;;;;5047804;28;19927;-93
2022/05/30 14:56:47;;;;;;;;;;;18.70;94.30;;;;;;5047173;28;19921;-92
2022/05/30 14:59:28;;;;;;;;;;;18.70;94.70;;;;;;5047137;28;19996;-92
2022/05/30 15:01:54;;;;;;;;;;;18.80;94.30;;;;;;5047359;28;19952;-91
2022/05/30 15:04:20;;;;;;;;;;;19.00;93.80;;;;;;5047002;28;19927;-92